Time;durP1;ratioP1;P1;durP2;ratioP2;P2;SDS_P1;SDS_P2;PMS_P1;PMS_P2;Temp;Humidity;BMP_temperature;BMP_pressure;BME280_temperature;BME280_humidity;BME280_pressure;Samples;Min_cycle;Max_cycle;Signal;HPM_P1;HPM_P2
2021/12/04 00:01:45;;;;;;;1.25;1.20;;;;;;;;;;5096281;28;20024;-90
2021/12/04 00:04:10;;;;;;;1.00;1.00;;;;;;;;;;5091756;28;20047;-90
2021/12/04 00:06:39;;;;;;;0.73;0.73;;;;;;;;;;5088708;28;20016;-89
2021/12/04 00:09:05;;;;;;;0.20;0.20;;;;;;;;;;5096531;28;20027;-90
2021/12/04 00:11:31;;;;;;;0.88;0.80;;;;;;;;;;5096574;28;20039;-90
2021/12/04 00:13:56;;;;;;;0.63;0.63;;;;;;;;;;5096381;28;20026;-90
2021/12/04 00:16:21;;;;;;;0.47;0.47;;;;;;;;;;5096377;28;20111;-90
2021/12/04 00:18:46;;;;;;;0.15;0.15;;;;;;;;;;5095915;28;20077;-90
2021/12/04 00:21:12;;;;;;;0.30;0.30;;;;;;;;;;5093003;28;20024;-90
2021/12/04 00:23:37;;;;;;;0.20;0.20;;;;;;;;;;5092597;28;20122;-90
2021/12/04 00:26:04;;;;;;;0.38;0.38;;;;;;;;;;5096394;28;20036;-90
2021/12/04 00:28:29;;;;;;;1.05;1.05;;;;;;;;;;5090201;28;20104;-90
2021/12/04 00:30:55;;;;;;;0.10;0.10;;;;;;;;;;5088413;28;20048;-89
2021/12/04 00:33:24;;;;;;;0.20;0.20;;;;;;;;;;5095914;28;20107;-91
2021/12/04 00:35:54;;;;;;;0.40;0.40;;;;;;;;;;5095192;28;20444;-90
2021/12/04 00:49:13;;;;;;;1.58;1.33;;;;;;;;;;5075262;28;20404;-90
2021/12/04 00:51:43;;;;;;;0.57;0.57;;;;;;;;;;5056870;28;20361;-90
2021/12/04 00:54:12;;;;;;;0.35;0.35;;;;;;;;;;5082835;28;20035;-90
2021/12/04 00:56:38;;;;;;;1.40;1.30;;;;;;;;;;5091577;28;20108;-90
2021/12/04 00:59:04;;;;;;;1.85;1.75;;;;;;;;;;5077439;28;20020;-90
2021/12/04 01:01:30;;;;;;;0.40;0.40;;;;;;;;;;5095389;28;20031;-90
2021/12/04 01:03:55;;;;;;;0.10;0.10;;;;;;;;;;5095319;28;20075;-90
2021/12/04 01:06:21;;;;;;;0.52;0.52;;;;;;;;;;5088748;28;20020;-90
2021/12/04 01:08:46;;;;;;;0.95;0.95;;;;;;;;;;5091740;28;20036;-90
2021/12/04 01:11:11;;;;;;;0.22;0.22;;;;;;;;;;5095469;28;20028;-89
2021/12/04 01:13:36;;;;;;;0.50;0.50;;;;;;;;;;5091952;28;20012;-91
2021/12/04 01:16:02;;;;;;;0.52;0.52;;;;;;;;;;5091817;28;20040;-91
2021/12/04 01:18:27;;;;;;;0.10;0.10;;;;;;;;;;5091804;28;20032;-90
2021/12/04 01:20:53;;;;;;;0.13;0.13;;;;;;;;;;5091765;28;20020;-91
2021/12/04 01:23:18;;;;;;;1.52;1.42;;;;;;;;;;5091763;28;20472;-89
2021/12/04 01:25:44;;;;;;;0.20;0.20;;;;;;;;;;5094529;28;20064;-89
2021/12/04 01:28:10;;;;;;;0.95;0.95;;;;;;;;;;5095003;28;20035;-89
2021/12/04 01:30:35;;;;;;;0.63;0.63;;;;;;;;;;5095050;28;20028;-90
2021/12/04 01:33:02;;;;;;;0.20;0.20;;;;;;;;;;5052396;28;20063;-89
2021/12/04 01:35:28;;;;;;;0.28;0.28;;;;;;;;;;5052524;28;20481;-90
2021/12/04 01:37:53;;;;;;;0.75;0.73;;;;;;;;;;5052295;28;20092;-89
2021/12/04 01:40:18;;;;;;;0.98;0.80;;;;;;;;;;5052311;28;20087;-91
2021/12/04 01:42:44;;;;;;;1.02;1.02;;;;;;;;;;5052045;28;20486;-91
2021/12/04 01:45:10;;;;;;;0.30;0.30;;;;;;;;;;5049626;28;20401;-91
2021/12/04 01:47:35;;;;;;;0.30;0.30;;;;;;;;;;5049618;28;20051;-91
2021/12/04 01:50:02;;;;;;;0.35;0.35;;;;;;;;;;5049406;28;20131;-90
2021/12/04 01:52:27;;;;;;;0.73;0.73;;;;;;;;;;5035577;28;20489;-91
2021/12/04 01:54:53;;;;;;;1.45;1.35;;;;;;;;;;5052383;28;20116;-90
2021/12/04 01:57:20;;;;;;;0.63;0.63;;;;;;;;;;5052311;28;20024;-91
2021/12/04 01:59:45;;;;;;;1.08;1.05;;;;;;;;;;5052252;28;20547;-90
2021/12/04 02:02:11;;;;;;;0.95;0.88;;;;;;;;;;5049114;28;20124;-90
2021/12/04 02:04:36;;;;;;;0.10;0.10;;;;;;;;;;5081452;28;20024;-90
2021/12/04 02:07:04;;;;;;;0.17;0.17;;;;;;;;;;5094603;28;20032;-90
2021/12/04 02:09:32;;;;;;;0.40;0.40;;;;;;;;;;5094449;28;20036;-90
2021/12/04 02:11:58;;;;;;;0.40;0.40;;;;;;;;;;5093896;28;20020;-90
2021/12/04 02:14:23;;;;;;;1.40;0.73;;;;;;;;;;5091004;28;20028;-91
2021/12/04 02:16:50;;;;;;;1.50;1.08;;;;;;;;;;5090642;28;20038;-90
2021/12/04 02:19:15;;;;;;;0.10;0.10;;;;;;;;;;5094209;28;20008;-90
2021/12/04 02:21:41;;;;;;;1.15;1.08;;;;;;;;;;5094040;28;20562;-88
2021/12/04 02:24:06;;;;;;;0.52;0.52;;;;;;;;;;5090512;28;20051;-90
2021/12/04 02:26:31;;;;;;;0.93;0.93;;;;;;;;;;5094112;28;20014;-90
2021/12/04 02:28:57;;;;;;;0.10;0.10;;;;;;;;;;5087711;28;20035;-89
2021/12/04 02:31:23;;;;;;;0.43;0.43;;;;;;;;;;5093730;28;20028;-89
2021/12/04 02:33:48;;;;;;;0.45;0.45;;;;;;;;;;5090310;28;20084;-88
2021/12/04 02:36:13;;;;;;;0.52;0.52;;;;;;;;;;5088719;28;20395;-89
2021/12/04 02:38:39;;;;;;;0.75;0.75;;;;;;;;;;5090119;28;20032;-89
2021/12/04 02:41:05;;;;;;;0.20;0.20;;;;;;;;;;5093449;28;20027;-88
2021/12/04 02:43:34;;;;;;;0.40;0.40;;;;;;;;;;5089954;28;20040;-88
2021/12/04 02:45:59;;;;;;;0.52;0.52;;;;;;;;;;5093733;28;20032;-88
2021/12/04 02:48:24;;;;;;;0.30;0.30;;;;;;;;;;5093335;28;20016;-88
2021/12/04 02:50:50;;;;;;;0.45;0.45;;;;;;;;;;5090190;28;20036;-89
2021/12/04 02:53:17;;;;;;;0.70;0.70;;;;;;;;;;5093600;28;20391;-89
2021/12/04 02:55:42;;;;;;;0.10;0.10;;;;;;;;;;5093573;28;20019;-89
2021/12/04 02:58:08;;;;;;;1.95;1.00;;;;;;;;;;5090007;28;20119;-88
2021/12/04 03:00:33;;;;;;;0.17;0.17;;;;;;;;;;5092746;28;20066;-87
2021/12/04 03:02:59;;;;;;;0.80;0.75;;;;;;;;;;5097002;28;20028;-87
2021/12/04 03:05:26;;;;;;;0.32;0.32;;;;;;;;;;5096820;28;20040;-88
2021/12/04 03:07:52;;;;;;;0.43;0.43;;;;;;;;;;5074594;28;20040;-88
2021/12/04 03:10:18;;;;;;;1.02;1.00;;;;;;;;;;5074625;28;20068;-87
2021/12/04 03:12:43;;;;;;;0.20;0.20;;;;;;;;;;5071571;28;20044;-88
2021/12/04 03:15:08;;;;;;;3.85;1.67;;;;;;;;;;5074408;28;20044;-88
2021/12/04 03:17:34;;;;;;;0.32;0.32;;;;;;;;;;5074287;28;20366;-88
2021/12/04 03:20:00;;;;;;;0.30;0.30;;;;;;;;;;5074457;28;20059;-88
2021/12/04 03:22:25;;;;;;;0.55;0.55;;;;;;;;;;5071201;28;20060;-89
2021/12/04 03:24:51;;;;;;;0.52;0.52;;;;;;;;;;5074361;28;20048;-89
2021/12/04 03:27:18;;;;;;;0.32;0.32;;;;;;;;;;5074316;28;20040;-88
2021/12/04 03:29:55;;;;;;;3.92;0.65;;;;;;;;;;5071374;28;20044;-88
2021/12/04 03:42:49;;;;;;;0.17;0.17;;;;;;;;;;5095055;28;20060;-89
2021/12/04 03:45:15;;;;;;;0.10;0.10;;;;;;;;;;5093341;28;20115;-89
2021/12/04 03:47:44;;;;;;;0.47;0.47;;;;;;;;;;5096503;28;20130;-88
2021/12/04 03:50:11;;;;;;;1.15;0.40;;;;;;;;;;5096615;28;20111;-89
2021/12/04 03:52:36;;;;;;;0.55;0.55;;;;;;;;;;5096407;28;20119;-88
2021/12/04 03:55:05;;;;;;;0.10;0.10;;;;;;;;;;5093218;28;20498;-88
2021/12/04 03:57:31;;;;;;;0.10;0.10;;;;;;;;;;5078467;28;20047;-89
2021/12/04 03:59:59;;;;;;;0.22;0.22;;;;;;;;;;5096526;28;20504;-88
2021/12/04 04:02:24;;;;;;;0.20;0.20;;;;;;;;;;5092684;28;20058;-88
2021/12/04 04:04:49;;;;;;;0.20;0.20;;;;;;;;;;5096286;28;20043;-89
2021/12/04 04:07:15;;;;;;;0.20;0.20;;;;;;;;;;5096252;28;20028;-89
2021/12/04 04:09:40;;;;;;;0.10;0.10;;;;;;;;;;5088466;28;20086;-88
2021/12/04 04:12:05;;;;;;;0.32;0.32;;;;;;;;;;5088529;28;20456;-88
2021/12/04 04:14:31;;;;;;;0.20;0.20;;;;;;;;;;5096125;28;20038;-89
2021/12/04 04:16:57;;;;;;;0.20;0.20;;;;;;;;;;5089642;28;20063;-88
2021/12/04 04:19:23;;;;;;;0.20;0.20;;;;;;;;;;5092621;28;20058;-88
2021/12/04 04:21:53;;;;;;;0.15;0.15;;;;;;;;;;5095843;28;20031;-88
2021/12/04 04:24:18;;;;;;;0.47;0.47;;;;;;;;;;5074819;28;20435;-88
2021/12/04 04:26:44;;;;;;;0.10;0.10;;;;;;;;;;5095496;28;20043;-87
2021/12/04 04:29:10;;;;;;;0.10;0.10;;;;;;;;;;5092125;28;20036;-87
2021/12/04 04:31:36;;;;;;;0.35;0.35;;;;;;;;;;5095219;28;20517;-87
2021/12/04 04:34:05;;;;;;;1.00;1.00;;;;;;;;;;5090225;28;20024;-88
2021/12/04 05:01:15;;;;;;;0.10;0.10;;;;;;;;;;5095113;28;20040;-88
2021/12/04 05:14:28;;;;;;;0.20;0.20;;;;;;;;;;5094771;28;20023;-88
2021/12/04 05:17:02;;;;;;;0.08;0.08;;;;;;;;;;5094767;28;20028;-87
2021/12/04 05:22:05;;;;;;;0.10;0.10;;;;;;;;;;5092687;28;20039;-88
2021/12/04 05:24:31;;;;;;;0.10;0.10;;;;;;;;;;5094482;28;20031;-88
2021/12/04 05:26:56;;;;;;;0.10;0.10;;;;;;;;;;5094748;28;20363;-88
2021/12/04 05:29:21;;;;;;;0.10;0.10;;;;;;;;;;5094564;28;20019;-88
2021/12/04 05:31:47;;;;;;;0.10;0.10;;;;;;;;;;5094327;28;20480;-88
2021/12/04 05:34:12;;;;;;;0.10;0.10;;;;;;;;;;5094478;28;20035;-89
2021/12/04 05:36:37;;;;;;;0.10;0.10;;;;;;;;;;5084358;28;20107;-89
2021/12/04 05:39:03;;;;;;;0.30;0.30;;;;;;;;;;5091081;28;20026;-89
2021/12/04 05:41:28;;;;;;;0.10;0.10;;;;;;;;;;5090746;28;20060;-89
2021/12/04 05:43:54;;;;;;;0.15;0.15;;;;;;;;;;5090823;28;20032;-89
2021/12/04 05:46:24;;;;;;;0.10;0.10;;;;;;;;;;5086621;28;20027;-89
2021/12/04 05:49:03;;;;;;;0.10;0.10;;;;;;;;;;5094096;28;20032;-89
2021/12/04 05:51:46;;;;;;;0.10;0.10;;;;;;;;;;5073975;28;20055;-89
2021/12/04 05:56:46;;;;;;;0.15;0.15;;;;;;;;;;5072000;28;20025;-88
2021/12/04 05:59:11;;;;;;;0.10;0.10;;;;;;;;;;5073823;28;20028;-88
2021/12/04 06:01:36;;;;;;;0.10;0.10;;;;;;;;;;5073837;28;20464;-88
2021/12/04 06:04:02;;;;;;;5.88;2.83;;;;;;;;;;5073877;28;20120;-87
2021/12/04 06:06:27;;;;;;;0.10;0.10;;;;;;;;;;5079397;28;20035;-89
2021/12/04 06:08:52;;;;;;;0.10;0.10;;;;;;;;;;5090667;28;20022;-89
2021/12/04 06:11:18;;;;;;;0.20;0.20;;;;;;;;;;5094104;28;20024;-90
2021/12/04 06:13:43;;;;;;;0.10;0.10;;;;;;;;;;5087752;28;20411;-89
2021/12/04 06:16:09;;;;;;;0.05;0.05;;;;;;;;;;5093913;28;20016;-89
2021/12/04 06:18:34;;;;;;;0.10;0.10;;;;;;;;;;5087724;28;20094;-88
2021/12/04 06:23:43;;;;;;;0.10;0.10;;;;;;;;;;5093491;28;20043;-88
2021/12/04 06:26:09;;;;;;;0.00;0.00;;;;;;;;;;5085846;28;20036;-88
2021/12/04 06:28:35;;;;;;;0.10;0.10;;;;;;;;;;5092485;28;20070;-88
2021/12/04 06:31:00;;;;;;;0.10;0.10;;;;;;;;;;5093683;28;20028;-88
2021/12/04 06:33:26;;;;;;;0.10;0.10;;;;;;;;;;5087459;28;20032;-89
2021/12/04 06:35:52;;;;;;;0.10;0.10;;;;;;;;;;5093833;28;20024;-89
2021/12/04 06:38:18;;;;;;;0.10;0.10;;;;;;;;;;5091647;28;20357;-89
2021/12/04 06:40:44;;;;;;;0.10;0.10;;;;;;;;;;5080056;28;20117;-89
2021/12/04 06:43:09;;;;;;;0.10;0.10;;;;;;;;;;5097870;28;20472;-88
2021/12/04 06:45:37;;;;;;;0.10;0.10;;;;;;;;;;5092943;28;20016;-88
2021/12/04 06:48:06;;;;;;;0.10;0.10;;;;;;;;;;5097027;28;20491;-87
2021/12/04 06:53:47;;;;;;;0.10;0.10;;;;;;;;;;4987580;28;20027;-87
2021/12/04 06:56:12;;;;;;;0.10;0.10;;;;;;;;;;5083069;28;20488;-89
2021/12/04 06:58:38;;;;;;;0.10;0.10;;;;;;;;;;5093828;28;20023;-88
2021/12/04 07:01:05;;;;;;;0.10;0.10;;;;;;;;;;5092549;28;20036;-89
2021/12/04 07:03:30;;;;;;;0.10;0.10;;;;;;;;;;5097259;28;20059;-87
2021/12/04 07:05:56;;;;;;;0.10;0.10;;;;;;;;;;5093891;28;20051;-88
2021/12/04 07:08:21;;;;;;;0.10;0.10;;;;;;;;;;5090876;28;20039;-88
2021/12/04 07:10:46;;;;;;;0.10;0.10;;;;;;;;;;5097400;28;20470;-89
2021/12/04 07:13:12;;;;;;;0.10;0.10;;;;;;;;;;5097093;28;20016;-90
2021/12/04 07:15:38;;;;;;;0.10;0.10;;;;;;;;;;5089567;28;20111;-89
2021/12/04 07:18:03;;;;;;;0.30;0.28;;;;;;;;;;5094349;28;20046;-89
2021/12/04 07:20:29;;;;;;;0.10;0.10;;;;;;;;;;5093956;28;20423;-90
2021/12/04 07:22:55;;;;;;;0.10;0.10;;;;;;;;;;5096918;28;20185;-88
2021/12/04 07:25:20;;;;;;;0.20;0.20;;;;;;;;;;5096746;28;20028;-88
2021/12/04 07:27:47;;;;;;;0.10;0.10;;;;;;;;;;5093225;28;20024;-88
2021/12/04 07:30:13;;;;;;;0.30;0.30;;;;;;;;;;5096917;28;20376;-89
2021/12/04 07:32:39;;;;;;;0.13;0.13;;;;;;;;;;5097094;28;20019;-88
2021/12/04 07:35:05;;;;;;;0.50;0.45;;;;;;;;;;5096582;28;20449;-88
2021/12/04 07:37:30;;;;;;;0.10;0.10;;;;;;;;;;5096232;28;20480;-87
2021/12/04 07:39:55;;;;;;;0.10;0.10;;;;;;;;;;5096283;28;20020;-87
2021/12/04 07:42:21;;;;;;;0.10;0.10;;;;;;;;;;5093302;28;20476;-86
2021/12/04 07:44:46;;;;;;;0.10;0.10;;;;;;;;;;5092758;28;20039;-86
2021/12/04 07:47:11;;;;;;;0.10;0.10;;;;;;;;;;5096485;28;20459;-87
2021/12/04 07:49:38;;;;;;;0.10;0.10;;;;;;;;;;5096455;28;20020;-87
2021/12/04 07:52:07;;;;;;;0.10;0.10;;;;;;;;;;5092754;28;20024;-87
2021/12/04 07:54:32;;;;;;;0.10;0.10;;;;;;;;;;5096306;28;20091;-87
2021/12/04 07:56:57;;;;;;;0.10;0.10;;;;;;;;;;5096966;28;20058;-88
2021/12/04 07:59:24;;;;;;;0.10;0.10;;;;;;;;;;5096377;28;20456;-89
2021/12/04 08:01:49;;;;;;;0.10;0.10;;;;;;;;;;5096461;28;20023;-89
2021/12/04 08:04:14;;;;;;;0.10;0.10;;;;;;;;;;5092840;28;20031;-90
2021/12/04 08:06:39;;;;;;;0.10;0.10;;;;;;;;;;5096870;28;20039;-89
2021/12/04 08:09:05;;;;;;;0.10;0.10;;;;;;;;;;5096093;28;20022;-89
2021/12/04 08:11:30;;;;;;;0.32;0.32;;;;;;;;;;5092784;28;20103;-89
2021/12/04 08:13:56;;;;;;;0.10;0.10;;;;;;;;;;5092572;28;20032;-89
2021/12/04 08:16:24;;;;;;;0.10;0.10;;;;;;;;;;5096164;28;20020;-89
2021/12/04 08:18:53;;;;;;;0.10;0.10;;;;;;;;;;5092579;28;20020;-89
2021/12/04 08:21:19;;;;;;;0.10;0.10;;;;;;;;;;5095764;28;20040;-91
2021/12/04 08:23:45;;;;;;;0.80;0.80;;;;;;;;;;5092474;28;20036;-89
2021/12/04 08:26:10;;;;;;;0.65;0.60;;;;;;;;;;5092360;28;20070;-89
2021/12/04 08:28:35;;;;;;;0.10;0.10;;;;;;;;;;5092536;28;20058;-90
2021/12/04 08:31:01;;;;;;;0.20;0.20;;;;;;;;;;5095860;28;20012;-89
2021/12/04 08:33:26;;;;;;;0.10;0.10;;;;;;;;;;5095674;28;20345;-90
2021/12/04 08:35:51;;;;;;;0.10;0.10;;;;;;;;;;5090861;28;20079;-90
2021/12/04 08:38:17;;;;;;;0.10;0.10;;;;;;;;;;5095614;28;20453;-91
2021/12/04 08:40:43;;;;;;;0.10;0.10;;;;;;;;;;5095936;28;20021;-89
2021/12/04 08:43:09;;;;;;;0.10;0.10;;;;;;;;;;5091938;28;20048;-89
2021/12/04 08:45:35;;;;;;;0.40;0.40;;;;;;;;;;5089230;28;20513;-88
2021/12/04 08:48:00;;;;;;;0.10;0.10;;;;;;;;;;5094910;28;20073;-89
2021/12/04 08:50:30;;;;;;;0.10;0.10;;;;;;;;;;5094812;28;20043;-90
2021/12/04 08:52:56;;;;;;;0.30;0.30;;;;;;;;;;5090105;28;20020;-89
2021/12/04 08:55:22;;;;;;;0.57;0.57;;;;;;;;;;5094933;28;20024;-89
2021/12/04 08:57:48;;;;;;;4.43;1.98;;;;;;;;;;5094231;28;20063;-90
2021/12/04 09:00:16;;;;;;;0.30;0.30;;;;;;;;;;5094891;28;20032;-88
2021/12/04 09:02:43;;;;;;;0.15;0.15;;;;;;;;;;5094936;28;20024;-79
2021/12/04 09:05:11;;;;;;;0.10;0.10;;;;;;;;;;5093656;28;20067;-80
2021/12/04 09:07:36;;;;;;;0.47;0.47;;;;;;;;;;5093969;28;20453;-78
2021/12/04 09:10:03;;;;;;;0.10;0.10;;;;;;;;;;5094129;28;20038;-80
2021/12/04 09:12:29;;;;;;;0.00;0.00;;;;;;;;;;5093982;28;20051;-80
2021/12/04 09:14:55;;;;;;;0.00;0.00;;;;;;;;;;5093808;28;20032;-80
2021/12/04 09:17:21;;;;;;;0.10;0.10;;;;;;;;;;5093164;28;20031;-80
2021/12/04 09:19:47;;;;;;;0.10;0.10;;;;;;;;;;5093802;28;20032;-80
2021/12/04 09:22:16;;;;;;;0.10;0.10;;;;;;;;;;5093856;28;20024;-79
2021/12/04 09:24:44;;;;;;;0.55;0.55;;;;;;;;;;5093440;28;20024;-79
2021/12/04 09:27:19;;;;;;;2.25;1.27;;;;;;;;;;5086382;28;20043;-79
2021/12/04 09:29:58;;;;;;;0.10;0.10;;;;;;;;;;5088758;28;20445;-79
2021/12/04 10:01:53;;;;;;;0.25;0.25;;;;;;;;;;5092255;28;20020;-79
2021/12/04 10:12:45;;;;;;;0.10;0.10;;;;;;;;;;5084736;28;20124;-79
2021/12/04 10:33:51;;;;;;;0.43;0.43;;;;;;;;;;5087952;28;20160;-79
2021/12/04 10:36:26;;;;;;;0.10;0.10;;;;;;;;;;5092846;28;20119;-79
2021/12/04 10:38:52;;;;;;;0.10;0.10;;;;;;;;;;5092499;28;20012;-79
2021/12/04 10:41:17;;;;;;;0.73;0.73;;;;;;;;;;5092497;28;20105;-79
2021/12/04 10:43:43;;;;;;;0.10;0.10;;;;;;;;;;5092462;28;20476;-79
2021/12/04 10:46:16;;;;;;;0.65;0.65;;;;;;;;;;5092798;28;20411;-79
2021/12/04 10:48:49;;;;;;;0.10;0.10;;;;;;;;;;5092892;28;20059;-79
2021/12/04 10:51:30;;;;;;;0.43;0.43;;;;;;;;;;5092500;28;20012;-79
2021/12/04 10:54:03;;;;;;;0.90;0.63;;;;;;;;;;5087100;28;20035;-81
2021/12/04 10:56:47;;;;;;;0.10;0.10;;;;;;;;;;5087435;28;20461;-79
2021/12/04 11:04:18;;;;;;;0.22;0.22;;;;;;;;;;5089021;28;20125;-79
2021/12/04 11:23:18;;;;;;;0.10;0.10;;;;;;;;;;5095872;28;20031;-79
2021/12/04 11:37:32;;;;;;;0.80;0.38;;;;;;;;;;5095828;28;20468;-79
2021/12/04 11:44:34;;;;;;;0.10;0.10;;;;;;;;;;5095618;28;20122;-79
2021/12/04 11:46:59;;;;;;;0.10;0.10;;;;;;;;;;5095650;28;20047;-79
2021/12/04 11:49:26;;;;;;;1.20;0.80;;;;;;;;;;5094778;28;20414;-79
2021/12/04 11:51:59;;;;;;;0.25;0.25;;;;;;;;;;5095631;28;20039;-79
2021/12/04 11:54:30;;;;;;;1.55;1.45;;;;;;;;;;5095193;28;20016;-79
2021/12/04 11:57:04;;;;;;;0.10;0.10;;;;;;;;;;5095668;28;20055;-79
2021/12/04 11:59:30;;;;;;;0.10;0.10;;;;;;;;;;5095296;28;20085;-79
2021/12/04 12:01:57;;;;;;;0.38;0.38;;;;;;;;;;5095365;28;20032;-80
2021/12/04 12:04:31;;;;;;;1.27;1.00;;;;;;;;;;5094849;28;20484;-79
2021/12/04 12:06:56;;;;;;;0.63;0.52;;;;;;;;;;5095264;28;20084;-79
2021/12/04 12:09:30;;;;;;;0.10;0.10;;;;;;;;;;5095369;28;20036;-79
2021/12/04 12:12:04;;;;;;;0.10;0.10;;;;;;;;;;5095172;28;20019;-80
2021/12/04 12:14:37;;;;;;;0.10;0.10;;;;;;;;;;5091650;28;20036;-80
2021/12/04 12:17:02;;;;;;;0.32;0.32;;;;;;;;;;5091583;28;20169;-80
2021/12/04 12:19:31;;;;;;;0.30;0.30;;;;;;;;;;5094165;28;20107;-80
2021/12/04 12:22:09;;;;;;;0.00;0.00;;;;;;;;;;5093119;28;20094;-80
2021/12/04 12:37:49;;;;;;;0.10;0.10;;;;;;;;;;5095485;28;20115;-87
2021/12/04 12:40:15;;;;;;;3.25;1.65;;;;;;;;;;5095224;28;20483;-90
2021/12/04 12:42:41;;;;;;;0.10;0.10;;;;;;;;;;5095442;28;20044;-90
2021/12/04 12:45:14;;;;;;;0.00;0.00;;;;;;;;;;5092197;28;20055;-89
2021/12/04 12:47:50;;;;;;;0.10;0.10;;;;;;;;;;5095792;28;20012;-89
2021/12/04 12:50:27;;;;;;;0.10;0.10;;;;;;;;;;5093499;28;20024;-89
2021/12/04 12:53:03;;;;;;;0.55;0.55;;;;;;;;;;5095243;28;20012;-89
2021/12/04 12:55:32;;;;;;;0.10;0.10;;;;;;;;;;5081697;28;20093;-90
2021/12/04 12:58:10;;;;;;;21.02;1.02;;;;;;;;;;5091834;28;20016;-89
2021/12/04 13:11:53;;;;;;;0.10;0.10;;;;;;;;;;5095214;28;20514;-90
2021/12/04 13:14:25;;;;;;;0.40;0.40;;;;;;;;;;5091924;28;20121;-90
2021/12/04 13:17:11;;;;;;;0.10;0.10;;;;;;;;;;5094934;28;20032;-90
2021/12/04 13:19:38;;;;;;;0.10;0.10;;;;;;;;;;5091387;28;20028;-89
2021/12/04 13:22:10;;;;;;;0.32;0.32;;;;;;;;;;5091680;28;20036;-88
2021/12/04 13:24:37;;;;;;;0.10;0.10;;;;;;;;;;5087468;28;20039;-91
2021/12/04 13:29:35;;;;;;;0.45;0.45;;;;;;;;;;5059368;28;20036;-91
2021/12/04 13:32:03;;;;;;;0.10;0.10;;;;;;;;;;5072954;28;20035;-90
2021/12/04 13:34:29;;;;;;;0.20;0.20;;;;;;;;;;5072785;28;20041;-91
2021/12/04 13:36:55;;;;;;;0.10;0.10;;;;;;;;;;5068899;28;20049;-90
2021/12/04 13:39:20;;;;;;;0.10;0.10;;;;;;;;;;5072826;28;20087;-92
2021/12/04 13:41:47;;;;;;;0.10;0.10;;;;;;;;;;5072669;28;20044;-91
2021/12/04 13:44:14;;;;;;;0.10;0.10;;;;;;;;;;5072109;28;20055;-92
2021/12/04 13:46:44;;;;;;;1.45;0.65;;;;;;;;;;5069800;28;20112;-91
2021/12/04 13:49:10;;;;;;;0.10;0.10;;;;;;;;;;5072588;28;20028;-91
2021/12/04 13:51:35;;;;;;;0.35;0.35;;;;;;;;;;5069870;28;20028;-92
2021/12/04 13:54:02;;;;;;;0.55;0.50;;;;;;;;;;5066539;28;20063;-89
2021/12/04 13:56:27;;;;;;;0.20;0.20;;;;;;;;;;5068572;28;20107;-91
2021/12/04 13:58:54;;;;;;;0.10;0.10;;;;;;;;;;5091225;28;20063;-92
2021/12/04 14:01:20;;;;;;;2.65;1.35;;;;;;;;;;5078684;28;20491;-92
2021/12/04 14:03:47;;;;;;;0.10;0.10;;;;;;;;;;5086310;28;20476;-91
2021/12/04 14:06:13;;;;;;;0.75;0.68;;;;;;;;;;5088451;28;20522;-92
2021/12/04 14:08:39;;;;;;;0.32;0.32;;;;;;;;;;5094613;28;20023;-92
2021/12/04 14:11:05;;;;;;;0.10;0.10;;;;;;;;;;5091227;28;20091;-91
2021/12/04 14:13:30;;;;;;;0.10;0.10;;;;;;;;;;5094325;28;20123;-91
2021/12/04 14:15:55;;;;;;;0.50;0.50;;;;;;;;;;5087901;28;20065;-91
2021/12/04 14:18:22;;;;;;;0.10;0.10;;;;;;;;;;5090656;28;20038;-92
2021/12/04 14:20:55;;;;;;;0.13;0.13;;;;;;;;;;5094266;28;20038;-91
2021/12/04 14:23:25;;;;;;;0.40;0.40;;;;;;;;;;5090288;28;20024;-91
2021/12/04 14:25:54;;;;;;;0.20;0.20;;;;;;;;;;5092005;28;20036;-91
2021/12/04 14:28:20;;;;;;;0.10;0.10;;;;;;;;;;5070152;28;20020;-91
2021/12/04 14:30:47;;;;;;;2.53;0.50;;;;;;;;;;5088784;28;20111;-91
2021/12/04 14:33:15;;;;;;;0.70;0.70;;;;;;;;;;5088870;28;20035;-90
2021/12/04 14:35:42;;;;;;;0.52;0.52;;;;;;;;;;5091778;28;20016;-92
2021/12/04 14:38:09;;;;;;;2.95;1.02;;;;;;;;;;5088267;28;20507;-91
2021/12/04 14:40:38;;;;;;;0.10;0.10;;;;;;;;;;5089225;28;20047;-91
2021/12/04 14:43:05;;;;;;;0.10;0.10;;;;;;;;;;5091913;28;20051;-90
2021/12/04 14:45:33;;;;;;;0.20;0.20;;;;;;;;;;5091762;28;20017;-89
2021/12/04 14:48:02;;;;;;;0.25;0.25;;;;;;;;;;5085532;28;20043;-89
2021/12/04 14:50:27;;;;;;;0.68;0.68;;;;;;;;;;5087963;28;20080;-89
2021/12/04 14:52:55;;;;;;;0.10;0.10;;;;;;;;;;5091365;28;20024;-90
2021/12/04 14:55:20;;;;;;;0.10;0.10;;;;;;;;;;5091833;28;20503;-89
2021/12/04 14:57:46;;;;;;;0.10;0.10;;;;;;;;;;5094647;28;20016;-89
2021/12/04 15:00:13;;;;;;;0.10;0.10;;;;;;;;;;5089877;28;20031;-90
2021/12/04 15:02:39;;;;;;;0.10;0.10;;;;;;;;;;5088751;28;20035;-81
2021/12/04 15:05:05;;;;;;;0.30;0.30;;;;;;;;;;5095046;28;20028;-89
2021/12/04 15:07:32;;;;;;;0.10;0.10;;;;;;;;;;5095619;28;20046;-89
2021/12/04 15:09:58;;;;;;;0.30;0.30;;;;;;;;;;5089866;28;20032;-90
2021/12/04 15:12:28;;;;;;;0.10;0.10;;;;;;;;;;5085922;28;20498;-89
2021/12/04 15:15:12;;;;;;;0.10;0.10;;;;;;;;;;5095327;28;20056;-90
2021/12/04 15:17:41;;;;;;;0.43;0.43;;;;;;;;;;5095385;28;20027;-90
2021/12/04 15:20:10;;;;;;;0.10;0.10;;;;;;;;;;5089401;28;20456;-91
2021/12/04 15:22:41;;;;;;;0.10;0.10;;;;;;;;;;5071854;28;20040;-90
2021/12/04 15:25:15;;;;;;;0.25;0.25;;;;;;;;;;5077217;28;20415;-91
2021/12/04 15:27:41;;;;;;;0.10;0.10;;;;;;;;;;5077005;28;20054;-90
2021/12/04 15:30:14;;;;;;;0.10;0.10;;;;;;;;;;5094617;28;20028;-89
2021/12/04 15:32:40;;;;;;;1.52;1.05;;;;;;;;;;5078289;28;20032;-89
2021/12/04 15:38:07;;;;;;;0.10;0.10;;;;;;;;;;5093111;28;20032;-90
2021/12/04 15:40:45;;;;;;;0.10;0.10;;;;;;;;;;5083534;28;20123;-92
2021/12/04 15:43:22;;;;;;;0.10;0.10;;;;;;;;;;5076914;28;20051;-91
2021/12/04 15:46:02;;;;;;;0.10;0.10;;;;;;;;;;5073948;28;20048;-92
2021/12/04 15:54:04;;;;;;;0.10;0.10;;;;;;;;;;5081659;28;20070;-91
2021/12/04 15:56:31;;;;;;;0.10;0.10;;;;;;;;;;5073483;28;20027;-90
2021/12/04 15:58:56;;;;;;;0.10;0.10;;;;;;;;;;5094255;28;20051;-89
2021/12/04 16:01:26;;;;;;;0.20;0.20;;;;;;;;;;5086656;28;20066;-90
2021/12/04 16:03:51;;;;;;;3.20;1.73;;;;;;;;;;5089108;28;20074;-87
2021/12/04 16:06:17;;;;;;;0.10;0.10;;;;;;;;;;5089692;28;20032;-91
2021/12/04 16:08:42;;;;;;;0.15;0.15;;;;;;;;;;5094306;28;20062;-91
2021/12/04 16:11:08;;;;;;;0.10;0.10;;;;;;;;;;5090979;28;20036;-91
2021/12/04 16:13:35;;;;;;;0.75;0.75;;;;;;;;;;5091276;28;20024;-92
2021/12/04 16:16:08;;;;;;;0.20;0.20;;;;;;;;;;5090485;28;20025;-90
2021/12/04 16:18:34;;;;;;;4.25;0.77;;;;;;;;;;5090449;28;20040;-90
2021/12/04 16:21:01;;;;;;;0.10;0.10;;;;;;;;;;5087606;28;20525;-90
2021/12/04 16:23:27;;;;;;;1.55;1.17;;;;;;;;;;5090365;28;20036;-89
2021/12/04 16:25:53;;;;;;;0.10;0.10;;;;;;;;;;5094369;28;20080;-90
2021/12/04 16:35:54;;;;;;;0.10;0.10;;;;;;;;;;5090335;28;20097;-91
2021/12/04 16:38:21;;;;;;;0.10;0.10;;;;;;;;;;5090376;28;20032;-91
2021/12/04 16:40:47;;;;;;;0.10;0.10;;;;;;;;;;5090343;28;20028;-91
2021/12/04 16:43:16;;;;;;;0.40;0.40;;;;;;;;;;5090104;28;20051;-91
2021/12/04 16:45:44;;;;;;;0.10;0.10;;;;;;;;;;5086755;28;20031;-93
2021/12/04 16:48:12;;;;;;;0.10;0.10;;;;;;;;;;5088565;28;20082;-91
2021/12/04 16:58:45;;;;;;;0.10;0.10;;;;;;;;;;5093399;28;21334;-93
2021/12/04 17:01:11;;;;;;;0.20;0.20;;;;;;;;;;5080760;28;20035;-93
2021/12/04 17:03:36;;;;;;;4.18;1.40;;;;;;;;;;5092235;28;20105;-93
2021/12/04 17:06:01;;;;;;;0.10;0.10;;;;;;;;;;5093124;28;20487;-92
2021/12/04 17:08:27;;;;;;;0.30;0.30;;;;;;;;;;5085899;28;20033;-90
2021/12/04 17:10:52;;;;;;;4.78;0.52;;;;;;;;;;5085319;28;20033;-93
2021/12/04 17:13:17;;;;;;;0.10;0.10;;;;;;;;;;5076485;28;20016;-92
2021/12/04 17:15:47;;;;;;;0.10;0.10;;;;;;;;;;5092120;28;20539;-93
2021/12/04 17:18:16;;;;;;;0.20;0.20;;;;;;;;;;5094922;28;20027;-94
2021/12/04 17:20:42;;;;;;;1.02;0.77;;;;;;;;;;5089891;28;20060;-93
2021/12/04 17:23:07;;;;;;;0.10;0.10;;;;;;;;;;5095690;28;20062;-93
2021/12/04 17:25:35;;;;;;;0.80;0.75;;;;;;;;;;5095554;28;20032;-93
2021/12/04 17:28:02;;;;;;;0.10;0.10;;;;;;;;;;5091817;28;20113;-92
2021/12/04 17:30:27;;;;;;;1.30;1.20;;;;;;;;;;5093934;28;20225;-93
2021/12/04 17:32:53;;;;;;;0.77;0.77;;;;;;;;;;5091672;28;20177;-92
2021/12/04 17:35:19;;;;;;;0.20;0.20;;;;;;;;;;5091737;28;20020;-92
2021/12/04 17:37:46;;;;;;;0.68;0.68;;;;;;;;;;5095330;28;20069;-92
2021/12/04 17:40:11;;;;;;;1.70;1.60;;;;;;;;;;5095104;28;20024;-91
2021/12/04 17:42:37;;;;;;;2.25;1.02;;;;;;;;;;5089253;28;20051;-91
2021/12/04 17:45:03;;;;;;;3.90;2.28;;;;;;;;;;5091386;28;20032;-93
2021/12/04 17:47:31;;;;;;;0.10;0.10;;;;;;;;;;5088657;28;20464;-92
2021/12/04 17:49:57;;;;;;;0.35;0.35;;;;;;;;;;5091454;28;20042;-92
2021/12/04 17:52:22;;;;;;;0.10;0.10;;;;;;;;;;5077023;28;20031;-92
2021/12/04 17:54:47;;;;;;;0.55;0.55;;;;;;;;;;5091399;28;20503;-92
2021/12/04 17:57:12;;;;;;;2.08;1.23;;;;;;;;;;5091492;28;20106;-92
2021/12/04 17:59:38;;;;;;;0.73;0.73;;;;;;;;;;5009955;28;20124;-91
2021/12/04 18:02:08;;;;;;;0.10;0.10;;;;;;;;;;5012996;28;20042;-92
2021/12/04 18:04:34;;;;;;;0.10;0.10;;;;;;;;;;5008621;28;20080;-92
2021/12/04 18:07:02;;;;;;;4.38;1.85;;;;;;;;;;5007160;28;20033;-91
2021/12/04 18:09:31;;;;;;;0.20;0.20;;;;;;;;;;5014058;28;20563;-92
2021/12/04 18:11:59;;;;;;;0.20;0.20;;;;;;;;;;5011869;28;20022;-93
2021/12/04 18:14:26;;;;;;;0.10;0.10;;;;;;;;;;5012711;28;20037;-91
2021/12/04 18:16:53;;;;;;;0.10;0.10;;;;;;;;;;5021960;28;20040;-91